sensor_id;sensor_type;location;lat;lon;timestamp;P1;durP1;ratioP1;P2;durP2;ratioP2
10637;SDS011;47007;49.252;8.904;2023-02-28T00:00:27;2.20;;;2.10;;
10637;SDS011;47007;49.252;8.904;2023-02-28T00:01:10;2.50;;;2.30;;
10637;SDS011;47007;49.252;8.904;2023-02-28T00:01:52;3.00;;;2.20;;
10637;SDS011;47007;49.252;8.904;2023-02-28T00:02:34;1.93;;;1.83;;
10637;SDS011;47007;49.252;8.904;2023-02-28T00:03:16;2.17;;;1.97;;
10637;SDS011;47007;49.252;8.904;2023-02-28T00:03:58;1.60;;;1.50;;
10637;SDS011;47007;49.252;8.904;2023-02-28T00:04:40;1.80;;;1.70;;
10637;SDS011;47007;49.252;8.904;2023-02-28T00:05:22;2.17;;;2.07;;
10637;SDS011;47007;49.252;8.904;2023-02-28T00:06:05;2.30;;;2.10;;
10637;SDS011;47007;49.252;8.904;2023-02-28T00:06:47;2.30;;;2.10;;
10637;SDS011;47007;49.252;8.904;2023-02-28T00:07:29;2.20;;;2.00;;
10637;SDS011;47007;49.252;8.904;2023-02-28T00:08:11;2.00;;;1.90;;
10637;SDS011;47007;49.252;8.904;2023-02-28T00:08:54;2.23;;;2.00;;
10637;SDS011;47007;49.252;8.904;2023-02-28T00:09:36;2.20;;;2.00;;
10637;SDS011;47007;49.252;8.904;2023-02-28T00:10:19;2.20;;;2.00;;
10637;SDS011;47007;49.252;8.904;2023-02-28T00:11:02;2.27;;;2.07;;
10637;SDS011;47007;49.252;8.904;2023-02-28T00:11:45;2.23;;;2.10;;
10637;SDS011;47007;49.252;8.904;2023-02-28T00:12:27;2.00;;;1.90;;
10637;SDS011;47007;49.252;8.904;2023-02-28T00:13:09;2.17;;;1.97;;
10637;SDS011;47007;49.252;8.904;2023-02-28T00:13:50;2.27;;;1.80;;
10637;SDS011;47007;49.252;8.904;2023-02-28T00:14:32;2.80;;;2.22;;
10637;SDS011;47007;49.252;8.904;2023-02-28T00:15:14;3.33;;;2.43;;
10637;SDS011;47007;49.252;8.904;2023-02-28T00:16:00;1.67;;;1.57;;
10637;SDS011;47007;49.252;8.904;2023-02-28T00:16:46;2.33;;;2.10;;
10637;SDS011;47007;49.252;8.904;2023-02-28T00:17:28;2.00;;;1.80;;
10637;SDS011;47007;49.252;8.904;2023-02-28T00:18:10;2.33;;;1.83;;
10637;SDS011;47007;49.252;8.904;2023-02-28T00:18:53;2.47;;;2.23;;
10637;SDS011;47007;49.252;8.904;2023-02-28T00:19:34;2.17;;;2.00;;
10637;SDS011;47007;49.252;8.904;2023-02-28T00:20:16;2.20;;;1.80;;
10637;SDS011;47007;49.252;8.904;2023-02-28T00:20:58;2.27;;;2.07;;
10637;SDS011;47007;49.252;8.904;2023-02-28T00:21:40;2.33;;;2.13;;
10637;SDS011;47007;49.252;8.904;2023-02-28T00:22:22;2.27;;;2.07;;
10637;SDS011;47007;49.252;8.904;2023-02-28T00:23:04;2.57;;;2.03;;
10637;SDS011;47007;49.252;8.904;2023-02-28T00:23:45;2.53;;;2.27;;
10637;SDS011;47007;49.252;8.904;2023-02-28T00:24:27;2.90;;;2.23;;
10637;SDS011;47007;49.252;8.904;2023-02-28T00:25:10;2.10;;;1.90;;
10637;SDS011;47007;49.252;8.904;2023-02-28T00:25:53;2.33;;;2.13;;
10637;SDS011;47007;49.252;8.904;2023-02-28T00:26:35;2.80;;;2.10;;
10637;SDS011;47007;49.252;8.904;2023-02-28T00:27:17;2.70;;;2.50;;
10637;SDS011;47007;49.252;8.904;2023-02-28T00:28:00;2.50;;;2.30;;
10637;SDS011;47007;49.252;8.904;2023-02-28T00:28:42;2.17;;;1.97;;
10637;SDS011;47007;49.252;8.904;2023-02-28T00:29:23;2.70;;;2.50;;
10637;SDS011;47007;49.252;8.904;2023-02-28T00:30:07;2.67;;;2.43;;
10637;SDS011;47007;49.252;8.904;2023-02-28T00:30:51;2.57;;;2.37;;
10637;SDS011;47007;49.252;8.904;2023-02-28T00:31:33;2.63;;;2.30;;
10637;SDS011;47007;49.252;8.904;2023-02-28T00:32:15;2.37;;;2.17;;
10637;SDS011;47007;49.252;8.904;2023-02-28T00:32:57;2.70;;;2.50;;
10637;SDS011;47007;49.252;8.904;2023-02-28T00:33:38;2.67;;;2.47;;
10637;SDS011;47007;49.252;8.904;2023-02-28T00:34:20;2.37;;;2.17;;
10637;SDS011;47007;49.252;8.904;2023-02-28T00:35:02;2.70;;;2.50;;
10637;SDS011;47007;49.252;8.904;2023-02-28T00:35:44;2.97;;;2.30;;
10637;SDS011;47007;49.252;8.904;2023-02-28T00:36:30;2.63;;;2.43;;
10637;SDS011;47007;49.252;8.904;2023-02-28T00:37:11;2.43;;;2.23;;
10637;SDS011;47007;49.252;8.904;2023-02-28T00:37:53;2.70;;;2.50;;
10637;SDS011;47007;49.252;8.904;2023-02-28T00:38:35;3.50;;;2.50;;
10637;SDS011;47007;49.252;8.904;2023-02-28T00:39:17;2.87;;;2.40;;
10637;SDS011;47007;49.252;8.904;2023-02-28T00:39:59;2.80;;;2.50;;
10637;SDS011;47007;49.252;8.904;2023-02-28T00:40:41;2.37;;;2.17;;
10637;SDS011;47007;49.252;8.904;2023-02-28T00:41:25;2.37;;;2.17;;
10637;SDS011;47007;49.252;8.904;2023-02-28T00:42:07;2.47;;;2.17;;
10637;SDS011;47007;49.252;8.904;2023-02-28T00:42:49;2.97;;;2.40;;
10637;SDS011;47007;49.252;8.904;2023-02-28T00:43:34;2.63;;;2.30;;
10637;SDS011;47007;49.252;8.904;2023-02-28T00:44:17;2.37;;;2.17;;
10637;SDS011;47007;49.252;8.904;2023-02-28T00:44:59;3.10;;;2.30;;
10637;SDS011;47007;49.252;8.904;2023-02-28T00:45:41;2.50;;;2.30;;
10637;SDS011;47007;49.252;8.904;2023-02-28T00:46:22;3.97;;;2.37;;
10637;SDS011;47007;49.252;8.904;2023-02-28T00:47:04;2.75;;;2.55;;
10637;SDS011;47007;49.252;8.904;2023-02-28T00:47:46;3.07;;;2.40;;
10637;SDS011;47007;49.252;8.904;2023-02-28T00:48:32;2.80;;;2.50;;
10637;SDS011;47007;49.252;8.904;2023-02-28T00:49:14;3.40;;;2.77;;
10637;SDS011;47007;49.252;8.904;2023-02-28T00:49:56;2.83;;;2.30;;
10637;SDS011;47007;49.252;8.904;2023-02-28T00:50:37;2.43;;;2.23;;
10637;SDS011;47007;49.252;8.904;2023-02-28T00:51:19;2.70;;;2.50;;
10637;SDS011;47007;49.252;8.904;2023-02-28T00:52:01;2.33;;;2.13;;
10637;SDS011;47007;49.252;8.904;2023-02-28T00:52:43;3.00;;;2.53;;
10637;SDS011;47007;49.252;8.904;2023-02-28T00:53:25;3.60;;;3.00;;
10637;SDS011;47007;49.252;8.904;2023-02-28T00:54:06;4.13;;;2.80;;
10637;SDS011;47007;49.252;8.904;2023-02-28T00:54:48;3.00;;;2.80;;
10637;SDS011;47007;49.252;8.904;2023-02-28T00:55:30;2.80;;;2.60;;
10637;SDS011;47007;49.252;8.904;2023-02-28T00:56:11;3.03;;;2.57;;
10637;SDS011;47007;49.252;8.904;2023-02-28T00:56:53;2.80;;;2.60;;
10637;SDS011;47007;49.252;8.904;2023-02-28T00:57:35;4.27;;;2.60;;
10637;SDS011;47007;49.252;8.904;2023-02-28T00:58:17;2.70;;;2.50;;
10637;SDS011;47007;49.252;8.904;2023-02-28T00:58:59;2.93;;;2.27;;
10637;SDS011;47007;49.252;8.904;2023-02-28T00:59:41;2.70;;;2.50;;
10637;SDS011;47007;49.252;8.904;2023-02-28T01:00:22;2.93;;;2.70;;
10637;SDS011;47007;49.252;8.904;2023-02-28T01:01:04;2.90;;;2.60;;
10637;SDS011;47007;49.252;8.904;2023-02-28T01:01:46;2.57;;;2.37;;
10637;SDS011;47007;49.252;8.904;2023-02-28T01:02:28;2.67;;;2.30;;
10637;SDS011;47007;49.252;8.904;2023-02-28T01:03:09;2.67;;;2.47;;
10637;SDS011;47007;49.252;8.904;2023-02-28T01:03:51;3.50;;;2.80;;
10637;SDS011;47007;49.252;8.904;2023-02-28T01:04:34;2.40;;;2.20;;
10637;SDS011;47007;49.252;8.904;2023-02-28T01:05:16;2.77;;;2.57;;
10637;SDS011;47007;49.252;8.904;2023-02-28T01:05:59;3.20;;;2.60;;
10637;SDS011;47007;49.252;8.904;2023-02-28T01:06:40;3.80;;;2.67;;
10637;SDS011;47007;49.252;8.904;2023-02-28T01:07:24;2.67;;;2.40;;
10637;SDS011;47007;49.252;8.904;2023-02-28T01:08:06;2.80;;;2.60;;
10637;SDS011;47007;49.252;8.904;2023-02-28T01:08:47;3.20;;;2.10;;
10637;SDS011;47007;49.252;8.904;2023-02-28T01:09:30;2.80;;;2.60;;
10637;SDS011;47007;49.252;8.904;2023-02-28T01:10:12;2.97;;;2.67;;
10637;SDS011;47007;49.252;8.904;2023-02-28T01:10:54;3.30;;;2.60;;
10637;SDS011;47007;49.252;8.904;2023-02-28T01:11:36;2.97;;;2.70;;
10637;SDS011;47007;49.252;8.904;2023-02-28T01:12:18;3.00;;;2.50;;
10637;SDS011;47007;49.252;8.904;2023-02-28T01:13:01;2.67;;;2.47;;
10637;SDS011;47007;49.252;8.904;2023-02-28T01:13:43;2.60;;;2.40;;
10637;SDS011;47007;49.252;8.904;2023-02-28T01:14:26;3.27;;;2.33;;
10637;SDS011;47007;49.252;8.904;2023-02-28T01:15:09;3.10;;;2.80;;
10637;SDS011;47007;49.252;8.904;2023-02-28T01:15:53;3.07;;;2.77;;
10637;SDS011;47007;49.252;8.904;2023-02-28T01:16:37;2.77;;;2.53;;
10637;SDS011;47007;49.252;8.904;2023-02-28T01:17:18;3.37;;;2.90;;
10637;SDS011;47007;49.252;8.904;2023-02-28T01:18:00;2.83;;;2.63;;
10637;SDS011;47007;49.252;8.904;2023-02-28T01:18:42;3.13;;;2.63;;
10637;SDS011;47007;49.252;8.904;2023-02-28T01:19:24;3.00;;;2.80;;
10637;SDS011;47007;49.252;8.904;2023-02-28T01:20:06;3.50;;;2.53;;
10637;SDS011;47007;49.252;8.904;2023-02-28T01:20:48;3.00;;;2.70;;
10637;SDS011;47007;49.252;8.904;2023-02-28T01:21:31;2.57;;;2.37;;
10637;SDS011;47007;49.252;8.904;2023-02-28T01:22:13;4.17;;;2.70;;
10637;SDS011;47007;49.252;8.904;2023-02-28T01:22:56;3.23;;;2.70;;
10637;SDS011;47007;49.252;8.904;2023-02-28T01:23:38;2.80;;;2.57;;
10637;SDS011;47007;49.252;8.904;2023-02-28T01:24:21;3.97;;;2.80;;
10637;SDS011;47007;49.252;8.904;2023-02-28T01:25:02;3.23;;;2.43;;
10637;SDS011;47007;49.252;8.904;2023-02-28T01:25:45;4.00;;;2.83;;
10637;SDS011;47007;49.252;8.904;2023-02-28T01:26:27;2.80;;;2.60;;
10637;SDS011;47007;49.252;8.904;2023-02-28T01:27:09;3.37;;;2.77;;
10637;SDS011;47007;49.252;8.904;2023-02-28T01:27:51;3.10;;;2.80;;
10637;SDS011;47007;49.252;8.904;2023-02-28T01:28:33;3.07;;;2.40;;
10637;SDS011;47007;49.252;8.904;2023-02-28T01:29:15;2.50;;;2.30;;
10637;SDS011;47007;49.252;8.904;2023-02-28T01:29:56;3.00;;;2.70;;
10637;SDS011;47007;49.252;8.904;2023-02-28T01:30:38;3.33;;;2.70;;
10637;SDS011;47007;49.252;8.904;2023-02-28T01:31:20;2.73;;;2.53;;
10637;SDS011;47007;49.252;8.904;2023-02-28T01:32:03;2.70;;;2.50;;
10637;SDS011;47007;49.252;8.904;2023-02-28T01:32:45;3.10;;;2.73;;
10637;SDS011;47007;49.252;8.904;2023-02-28T01:33:26;3.03;;;2.73;;
10637;SDS011;47007;49.252;8.904;2023-02-28T01:34:09;2.97;;;2.70;;
10637;SDS011;47007;49.252;8.904;2023-02-28T01:34:51;2.87;;;2.50;;
10637;SDS011;47007;49.252;8.904;2023-02-28T01:35:33;3.47;;;2.80;;
10637;SDS011;47007;49.252;8.904;2023-02-28T01:36:17;2.93;;;2.10;;
10637;SDS011;47007;49.252;8.904;2023-02-28T01:37:01;2.90;;;2.60;;
10637;SDS011;47007;49.252;8.904;2023-02-28T01:37:43;3.23;;;2.93;;
10637;SDS011;47007;49.252;8.904;2023-02-28T01:38:24;3.17;;;2.43;;
10637;SDS011;47007;49.252;8.904;2023-02-28T01:39:08;2.80;;;2.60;;
10637;SDS011;47007;49.252;8.904;2023-02-28T01:39:49;2.90;;;2.60;;
10637;SDS011;47007;49.252;8.904;2023-02-28T01:40:34;3.00;;;2.70;;
10637;SDS011;47007;49.252;8.904;2023-02-28T01:41:37;3.20;;;2.90;;
10637;SDS011;47007;49.252;8.904;2023-02-28T01:42:17;2.90;;;2.70;;
10637;SDS011;47007;49.252;8.904;2023-02-28T01:42:59;3.40;;;3.10;;
10637;SDS011;47007;49.252;8.904;2023-02-28T01:45:39;3.43;;;2.93;;
10637;SDS011;47007;49.252;8.904;2023-02-28T01:46:21;3.00;;;2.70;;
10637;SDS011;47007;49.252;8.904;2023-02-28T01:47:03;3.03;;;2.70;;
10637;SDS011;47007;49.252;8.904;2023-02-28T01:47:44;3.20;;;2.90;;
10637;SDS011;47007;49.252;8.904;2023-02-28T01:48:27;3.97;;;3.00;;
10637;SDS011;47007;49.252;8.904;2023-02-28T01:49:15;3.33;;;3.03;;
10637;SDS011;47007;49.252;8.904;2023-02-28T01:49:59;3.10;;;2.80;;
10637;SDS011;47007;49.252;8.904;2023-02-28T01:50:44;3.50;;;3.00;;
10637;SDS011;47007;49.252;8.904;2023-02-28T01:51:30;3.60;;;2.70;;
10637;SDS011;47007;49.252;8.904;2023-02-28T01:52:19;3.03;;;2.80;;
10637;SDS011;47007;49.252;8.904;2023-02-28T01:53:04;3.03;;;2.73;;
10637;SDS011;47007;49.252;8.904;2023-02-28T01:53:49;3.77;;;3.10;;
10637;SDS011;47007;49.252;8.904;2023-02-28T01:54:34;3.27;;;2.97;;
10637;SDS011;47007;49.252;8.904;2023-02-28T01:55:18;2.90;;;2.70;;
10637;SDS011;47007;49.252;8.904;2023-02-28T01:56:01;3.10;;;2.80;;
10637;SDS011;47007;49.252;8.904;2023-02-28T01:56:48;3.40;;;3.10;;
10637;SDS011;47007;49.252;8.904;2023-02-28T01:57:36;3.33;;;2.73;;
10637;SDS011;47007;49.252;8.904;2023-02-28T01:58:23;2.77;;;2.57;;
10637;SDS011;47007;49.252;8.904;2023-02-28T01:59:05;3.43;;;3.13;;
10637;SDS011;47007;49.252;8.904;2023-02-28T01:59:52;2.90;;;2.60;;
10637;SDS011;47007;49.252;8.904;2023-02-28T02:00:53;3.23;;;2.73;;
10637;SDS011;47007;49.252;8.904;2023-02-28T02:01:35;3.33;;;2.80;;
10637;SDS011;47007;49.252;8.904;2023-02-28T02:02:17;3.30;;;3.00;;
10637;SDS011;47007;49.252;8.904;2023-02-28T02:03:04;3.60;;;3.17;;
10637;SDS011;47007;49.252;8.904;2023-02-28T02:03:51;2.87;;;2.63;;
10637;SDS011;47007;49.252;8.904;2023-02-28T02:04:45;3.33;;;3.03;;
10637;SDS011;47007;49.252;8.904;2023-02-28T02:05:33;4.33;;;3.20;;
10637;SDS011;47007;49.252;8.904;2023-02-28T02:06:15;3.43;;;2.97;;
10637;SDS011;47007;49.252;8.904;2023-02-28T02:06:57;3.33;;;3.00;;
10637;SDS011;47007;49.252;8.904;2023-02-28T02:07:40;3.40;;;3.10;;
10637;SDS011;47007;49.252;8.904;2023-02-28T02:08:25;3.10;;;2.80;;
10637;SDS011;47007;49.252;8.904;2023-02-28T02:09:09;3.87;;;3.37;;
10637;SDS011;47007;49.252;8.904;2023-02-28T02:10:02;4.63;;;3.50;;
10637;SDS011;47007;49.252;8.904;2023-02-28T02:11:32;3.17;;;2.80;;
10637;SDS011;47007;49.252;8.904;2023-02-28T02:12:24;3.30;;;3.00;;
10637;SDS011;47007;49.252;8.904;2023-02-28T02:15:01;3.50;;;3.20;;
10637;SDS011;47007;49.252;8.904;2023-02-28T02:17:56;3.40;;;3.10;;
10637;SDS011;47007;49.252;8.904;2023-02-28T02:21:35;3.43;;;3.00;;
10637;SDS011;47007;49.252;8.904;2023-02-28T02:34:36;4.27;;;3.20;;
10637;SDS011;47007;49.252;8.904;2023-02-28T02:35:46;3.77;;;3.20;;
10637;SDS011;47007;49.252;8.904;2023-02-28T02:36:38;3.50;;;3.17;;
10637;SDS011;47007;49.252;8.904;2023-02-28T02:39:13;4.47;;;3.07;;
10637;SDS011;47007;49.252;8.904;2023-02-28T02:42:00;3.53;;;3.23;;
10637;SDS011;47007;49.252;8.904;2023-02-28T02:42:50;3.50;;;3.20;;
10637;SDS011;47007;49.252;8.904;2023-02-28T02:43:44;4.00;;;3.27;;
10637;SDS011;47007;49.252;8.904;2023-02-28T02:44:33;3.23;;;2.93;;
10637;SDS011;47007;49.252;8.904;2023-02-28T02:46:19;3.37;;;3.10;;
10637;SDS011;47007;49.252;8.904;2023-02-28T02:47:08;3.70;;;3.23;;
10637;SDS011;47007;49.252;8.904;2023-02-28T02:47:53;3.60;;;3.03;;
10637;SDS011;47007;49.252;8.904;2023-02-28T02:48:40;3.70;;;3.40;;
10637;SDS011;47007;49.252;8.904;2023-02-28T02:49:33;3.63;;;3.33;;
10637;SDS011;47007;49.252;8.904;2023-02-28T02:50:21;4.60;;;3.10;;
10637;SDS011;47007;49.252;8.904;2023-02-28T02:51:09;5.27;;;3.33;;
10637;SDS011;47007;49.252;8.904;2023-02-28T02:51:56;3.50;;;3.20;;
10637;SDS011;47007;49.252;8.904;2023-02-28T02:52:44;3.40;;;3.10;;
10637;SDS011;47007;49.252;8.904;2023-02-28T02:53:35;3.77;;;3.37;;
10637;SDS011;47007;49.252;8.904;2023-02-28T02:54:22;3.47;;;3.03;;
10637;SDS011;47007;49.252;8.904;2023-02-28T02:55:10;3.90;;;3.60;;
10637;SDS011;47007;49.252;8.904;2023-02-28T02:55:53;4.27;;;3.57;;
10637;SDS011;47007;49.252;8.904;2023-02-28T02:56:38;4.27;;;3.40;;
10637;SDS011;47007;49.252;8.904;2023-02-28T02:57:23;3.40;;;3.10;;
10637;SDS011;47007;49.252;8.904;2023-02-28T02:58:13;3.73;;;3.30;;
10637;SDS011;47007;49.252;8.904;2023-02-28T02:59:00;4.03;;;3.70;;
10637;SDS011;47007;49.252;8.904;2023-02-28T02:59:48;3.63;;;3.23;;
10637;SDS011;47007;49.252;8.904;2023-02-28T03:00:38;4.20;;;3.53;;
10637;SDS011;47007;49.252;8.904;2023-02-28T03:01:24;3.83;;;3.40;;
10637;SDS011;47007;49.252;8.904;2023-02-28T03:02:11;3.80;;;3.30;;
10637;SDS011;47007;49.252;8.904;2023-02-28T03:02:56;3.47;;;3.17;;
10637;SDS011;47007;49.252;8.904;2023-02-28T03:03:38;3.63;;;3.33;;
10637;SDS011;47007;49.252;8.904;2023-02-28T03:04:21;4.20;;;3.70;;
10637;SDS011;47007;49.252;8.904;2023-02-28T03:05:12;3.47;;;3.17;;
10637;SDS011;47007;49.252;8.904;2023-02-28T03:06:00;3.53;;;3.23;;
10637;SDS011;47007;49.252;8.904;2023-02-28T03:06:43;4.13;;;2.90;;
10637;SDS011;47007;49.252;8.904;2023-02-28T03:07:25;3.83;;;3.53;;
10637;SDS011;47007;49.252;8.904;2023-02-28T03:08:07;4.37;;;3.50;;
10637;SDS011;47007;49.252;8.904;2023-02-28T03:08:48;3.90;;;3.50;;
10637;SDS011;47007;49.252;8.904;2023-02-28T03:09:32;4.97;;;3.60;;
10637;SDS011;47007;49.252;8.904;2023-02-28T03:11:17;4.23;;;3.63;;
10637;SDS011;47007;49.252;8.904;2023-02-28T03:12:02;3.53;;;3.20;;
10637;SDS011;47007;49.252;8.904;2023-02-28T03:12:52;3.20;;;2.83;;
10637;SDS011;47007;49.252;8.904;2023-02-28T03:19:45;3.40;;;3.10;;
10637;SDS011;47007;49.252;8.904;2023-02-28T03:23:17;4.03;;;3.30;;
10637;SDS011;47007;49.252;8.904;2023-02-28T03:24:07;5.47;;;3.77;;
10637;SDS011;47007;49.252;8.904;2023-02-28T03:26:13;4.87;;;3.47;;
10637;SDS011;47007;49.252;8.904;2023-02-28T03:27:04;4.30;;;3.47;;
10637;SDS011;47007;49.252;8.904;2023-02-28T03:28:53;4.13;;;3.40;;
10637;SDS011;47007;49.252;8.904;2023-02-28T03:29:39;4.33;;;3.93;;
10637;SDS011;47007;49.252;8.904;2023-02-28T03:30:33;4.23;;;3.83;;
10637;SDS011;47007;49.252;8.904;2023-02-28T03:31:25;3.77;;;3.47;;
10637;SDS011;47007;49.252;8.904;2023-02-28T03:32:14;4.00;;;3.70;;
10637;SDS011;47007;49.252;8.904;2023-02-28T03:33:21;4.47;;;3.67;;
10637;SDS011;47007;49.252;8.904;2023-02-28T03:34:06;3.77;;;3.37;;
10637;SDS011;47007;49.252;8.904;2023-02-28T03:34:57;4.20;;;3.63;;
10637;SDS011;47007;49.252;8.904;2023-02-28T03:36:13;3.80;;;3.40;;
10637;SDS011;47007;49.252;8.904;2023-02-28T03:36:59;4.43;;;4.03;;
10637;SDS011;47007;49.252;8.904;2023-02-28T03:37:45;3.80;;;3.50;;
10637;SDS011;47007;49.252;8.904;2023-02-28T03:39:45;4.17;;;3.33;;
10637;SDS011;47007;49.252;8.904;2023-02-28T03:40:33;3.50;;;3.20;;
10637;SDS011;47007;49.252;8.904;2023-02-28T03:42:20;4.80;;;3.80;;
10637;SDS011;47007;49.252;8.904;2023-02-28T03:43:08;4.30;;;3.87;;
10637;SDS011;47007;49.252;8.904;2023-02-28T03:43:58;3.40;;;3.10;;
10637;SDS011;47007;49.252;8.904;2023-02-28T03:44:57;3.70;;;3.40;;
10637;SDS011;47007;49.252;8.904;2023-02-28T03:45:41;4.40;;;4.00;;
10637;SDS011;47007;49.252;8.904;2023-02-28T03:46:27;4.60;;;4.17;;
10637;SDS011;47007;49.252;8.904;2023-02-28T03:47:17;4.40;;;4.00;;
10637;SDS011;47007;49.252;8.904;2023-02-28T03:49:08;4.10;;;3.70;;
10637;SDS011;47007;49.252;8.904;2023-02-28T03:50:49;4.47;;;4.07;;
10637;SDS011;47007;49.252;8.904;2023-02-28T03:51:35;3.80;;;3.50;;
10637;SDS011;47007;49.252;8.904;2023-02-28T03:52:19;4.00;;;3.70;;
10637;SDS011;47007;49.252;8.904;2023-02-28T03:53:07;5.30;;;4.10;;
10637;SDS011;47007;49.252;8.904;2023-02-28T03:53:57;4.87;;;3.87;;
10637;SDS011;47007;49.252;8.904;2023-02-28T03:54:47;5.07;;;4.23;;
10637;SDS011;47007;49.252;8.904;2023-02-28T03:55:34;4.33;;;3.93;;
10637;SDS011;47007;49.252;8.904;2023-02-28T03:56:22;4.67;;;4.10;;
10637;SDS011;47007;49.252;8.904;2023-02-28T03:57:16;3.63;;;3.30;;
10637;SDS011;47007;49.252;8.904;2023-02-28T03:58:12;4.60;;;3.73;;
10637;SDS011;47007;49.252;8.904;2023-02-28T04:00:57;4.83;;;4.37;;
10637;SDS011;47007;49.252;8.904;2023-02-28T04:01:49;4.70;;;4.30;;
10637;SDS011;47007;49.252;8.904;2023-02-28T04:02:32;4.23;;;3.77;;
10637;SDS011;47007;49.252;8.904;2023-02-28T04:03:14;4.30;;;3.90;;
10637;SDS011;47007;49.252;8.904;2023-02-28T04:03:56;3.90;;;3.50;;
10637;SDS011;47007;49.252;8.904;2023-02-28T04:04:38;4.53;;;3.93;;
10637;SDS011;47007;49.252;8.904;2023-02-28T04:05:20;4.20;;;3.90;;
10637;SDS011;47007;49.252;8.904;2023-02-28T04:06:04;4.33;;;3.93;;
10637;SDS011;47007;49.252;8.904;2023-02-28T04:06:49;4.50;;;4.10;;
10637;SDS011;47007;49.252;8.904;2023-02-28T04:07:32;4.60;;;4.20;;
10637;SDS011;47007;49.252;8.904;2023-02-28T04:08:14;4.63;;;4.20;;
10637;SDS011;47007;49.252;8.904;2023-02-28T04:08:56;4.67;;;4.27;;
10637;SDS011;47007;49.252;8.904;2023-02-28T04:09:37;4.80;;;4.40;;
10637;SDS011;47007;49.252;8.904;2023-02-28T04:10:19;5.20;;;4.80;;
10637;SDS011;47007;49.252;8.904;2023-02-28T04:11:03;5.10;;;4.60;;
10637;SDS011;47007;49.252;8.904;2023-02-28T04:11:50;4.90;;;4.40;;
10637;SDS011;47007;49.252;8.904;2023-02-28T04:12:36;4.63;;;4.20;;
10637;SDS011;47007;49.252;8.904;2023-02-28T04:13:18;4.10;;;3.70;;
10637;SDS011;47007;49.252;8.904;2023-02-28T04:14:00;4.73;;;4.33;;
10637;SDS011;47007;49.252;8.904;2023-02-28T04:14:43;4.43;;;4.00;;
10637;SDS011;47007;49.252;8.904;2023-02-28T04:15:24;3.97;;;3.67;;
10637;SDS011;47007;49.252;8.904;2023-02-28T04:16:08;5.00;;;4.60;;
10637;SDS011;47007;49.252;8.904;2023-02-28T04:17:01;5.33;;;4.30;;
10637;SDS011;47007;49.252;8.904;2023-02-28T04:17:43;4.63;;;4.20;;
10637;SDS011;47007;49.252;8.904;2023-02-28T04:18:25;4.30;;;3.90;;
10637;SDS011;47007;49.252;8.904;2023-02-28T04:19:07;4.10;;;3.70;;
10637;SDS011;47007;49.252;8.904;2023-02-28T04:19:50;4.87;;;4.47;;
10637;SDS011;47007;49.252;8.904;2023-02-28T04:20:32;5.00;;;4.50;;
10637;SDS011;47007;49.252;8.904;2023-02-28T04:21:14;4.43;;;3.90;;
10637;SDS011;47007;49.252;8.904;2023-02-28T04:21:55;4.43;;;4.03;;
10637;SDS011;47007;49.252;8.904;2023-02-28T04:22:37;5.20;;;4.30;;
10637;SDS011;47007;49.252;8.904;2023-02-28T04:23:19;4.77;;;4.37;;
10637;SDS011;47007;49.252;8.904;2023-02-28T04:24:00;5.97;;;4.60;;
10637;SDS011;47007;49.252;8.904;2023-02-28T04:24:42;5.63;;;4.67;;
10637;SDS011;47007;49.252;8.904;2023-02-28T04:25:24;5.00;;;4.50;;
10637;SDS011;47007;49.252;8.904;2023-02-28T04:26:06;5.00;;;4.20;;
10637;SDS011;47007;49.252;8.904;2023-02-28T04:26:49;4.43;;;4.03;;
10637;SDS011;47007;49.252;8.904;2023-02-28T04:27:32;5.13;;;4.10;;
10637;SDS011;47007;49.252;8.904;2023-02-28T04:28:14;4.40;;;4.00;;
10637;SDS011;47007;49.252;8.904;2023-02-28T04:28:58;4.53;;;4.07;;
10637;SDS011;47007;49.252;8.904;2023-02-28T04:29:41;4.77;;;4.37;;
10637;SDS011;47007;49.252;8.904;2023-02-28T04:30:25;4.13;;;3.77;;
10637;SDS011;47007;49.252;8.904;2023-02-28T04:31:07;5.10;;;4.00;;
10637;SDS011;47007;49.252;8.904;2023-02-28T04:31:48;5.13;;;4.60;;
10637;SDS011;47007;49.252;8.904;2023-02-28T04:32:30;4.60;;;4.13;;
10637;SDS011;47007;49.252;8.904;2023-02-28T04:33:12;4.97;;;4.10;;
10637;SDS011;47007;49.252;8.904;2023-02-28T04:33:54;5.03;;;4.60;;
10637;SDS011;47007;49.252;8.904;2023-02-28T04:34:36;5.20;;;4.70;;
10637;SDS011;47007;49.252;8.904;2023-02-28T04:35:17;4.60;;;4.20;;
10637;SDS011;47007;49.252;8.904;2023-02-28T04:36:03;4.57;;;4.18;;
10637;SDS011;47007;49.252;8.904;2023-02-28T04:36:46;4.80;;;4.33;;
10637;SDS011;47007;49.252;8.904;2023-02-28T04:37:52;4.30;;;3.90;;
10637;SDS011;47007;49.252;8.904;2023-02-28T04:38:35;4.90;;;4.20;;
10637;SDS011;47007;49.252;8.904;2023-02-28T04:39:18;5.60;;;4.13;;
10637;SDS011;47007;49.252;8.904;2023-02-28T04:40:00;5.50;;;4.83;;
10637;SDS011;47007;49.252;8.904;2023-02-28T04:40:42;4.10;;;3.70;;
10637;SDS011;47007;49.252;8.904;2023-02-28T04:41:24;4.57;;;4.17;;
10637;SDS011;47007;49.252;8.904;2023-02-28T04:42:06;4.97;;;3.70;;
10637;SDS011;47007;49.252;8.904;2023-02-28T04:42:50;4.47;;;4.00;;
10637;SDS011;47007;49.252;8.904;2023-02-28T04:43:31;4.30;;;3.90;;
10637;SDS011;47007;49.252;8.904;2023-02-28T04:44:13;5.10;;;4.60;;
10637;SDS011;47007;49.252;8.904;2023-02-28T04:44:55;4.00;;;3.60;;
10637;SDS011;47007;49.252;8.904;2023-02-28T04:45:37;4.60;;;3.90;;
10637;SDS011;47007;49.252;8.904;2023-02-28T04:46:19;4.30;;;3.90;;
10637;SDS011;47007;49.252;8.904;2023-02-28T04:47:01;4.97;;;3.90;;
10637;SDS011;47007;49.252;8.904;2023-02-28T04:47:42;5.93;;;4.23;;
10637;SDS011;47007;49.252;8.904;2023-02-28T04:48:25;4.27;;;3.87;;
10637;SDS011;47007;49.252;8.904;2023-02-28T04:49:09;4.40;;;4.00;;
10637;SDS011;47007;49.252;8.904;2023-02-28T04:49:52;4.57;;;4.17;;
10637;SDS011;47007;49.252;8.904;2023-02-28T04:50:34;5.83;;;4.77;;
10637;SDS011;47007;49.252;8.904;2023-02-28T04:51:16;4.23;;;3.83;;
10637;SDS011;47007;49.252;8.904;2023-02-28T04:51:59;4.43;;;4.03;;
10637;SDS011;47007;49.252;8.904;2023-02-28T04:52:40;3.67;;;3.37;;
10637;SDS011;47007;49.252;8.904;2023-02-28T04:53:22;4.28;;;3.88;;
10637;SDS011;47007;49.252;8.904;2023-02-28T04:54:04;4.93;;;4.43;;
10637;SDS011;47007;49.252;8.904;2023-02-28T04:54:46;4.70;;;4.10;;
10637;SDS011;47007;49.252;8.904;2023-02-28T04:55:27;4.90;;;4.40;;
10637;SDS011;47007;49.252;8.904;2023-02-28T04:56:13;4.40;;;4.00;;
10637;SDS011;47007;49.252;8.904;2023-02-28T04:56:56;4.80;;;4.30;;
10637;SDS011;47007;49.252;8.904;2023-02-28T04:57:38;5.37;;;4.87;;
10637;SDS011;47007;49.252;8.904;2023-02-28T04:58:20;4.47;;;4.07;;
10637;SDS011;47007;49.252;8.904;2023-02-28T04:59:04;4.57;;;4.18;;
10637;SDS011;47007;49.252;8.904;2023-02-28T04:59:45;5.97;;;4.47;;
10637;SDS011;47007;49.252;8.904;2023-02-28T05:00:27;6.87;;;4.87;;
10637;SDS011;47007;49.252;8.904;2023-02-28T05:01:16;4.90;;;4.50;;
10637;SDS011;47007;49.252;8.904;2023-02-28T05:02:00;5.30;;;4.20;;
10637;SDS011;47007;49.252;8.904;2023-02-28T05:02:47;4.80;;;4.30;;
10637;SDS011;47007;49.252;8.904;2023-02-28T05:03:29;4.50;;;4.10;;
10637;SDS011;47007;49.252;8.904;2023-02-28T05:04:11;5.67;;;4.07;;
10637;SDS011;47007;49.252;8.904;2023-02-28T05:04:52;4.47;;;4.05;;
10637;SDS011;47007;49.252;8.904;2023-02-28T05:05:34;4.77;;;4.10;;
10637;SDS011;47007;49.252;8.904;2023-02-28T05:06:16;4.60;;;4.20;;
10637;SDS011;47007;49.252;8.904;2023-02-28T05:06:58;4.80;;;4.40;;
10637;SDS011;47007;49.252;8.904;2023-02-28T05:07:40;4.53;;;4.07;;
10637;SDS011;47007;49.252;8.904;2023-02-28T05:08:21;4.30;;;3.90;;
10637;SDS011;47007;49.252;8.904;2023-02-28T05:09:03;4.50;;;4.10;;
10637;SDS011;47007;49.252;8.904;2023-02-28T05:09:45;4.27;;;3.97;;
10637;SDS011;47007;49.252;8.904;2023-02-28T05:10:26;5.43;;;4.37;;
10637;SDS011;47007;49.252;8.904;2023-02-28T05:11:13;4.83;;;3.83;;
10637;SDS011;47007;49.252;8.904;2023-02-28T05:11:57;4.70;;;4.20;;